createdAt,value
2018-06-04T00:01:20.585Z,75.38
2018-06-04T00:03:50.273Z,74.52
2018-06-04T00:06:20.502Z,74.04
2018-06-04T00:08:50.088Z,74.55
2018-06-04T00:11:19.637Z,74.95
2018-06-04T00:13:50.158Z,74.52
2018-06-04T00:16:20.233Z,74.43
2018-06-04T00:18:49.681Z,74.71
2018-06-04T00:21:19.054Z,74.78
2018-06-04T00:23:49.408Z,74.59
2018-06-04T00:26:18.788Z,74.25
2018-06-04T00:28:48.291Z,74.55
2018-06-04T00:31:17.700Z,74.14
2018-06-04T00:33:46.969Z,75.07
2018-06-04T00:36:16.482Z,74.22
2018-06-04T00:38:45.875Z,74.52
2018-06-04T00:41:15.186Z,74.67
2018-06-04T00:43:44.989Z,74.91
2018-06-04T00:46:14.354Z,75.04
2018-06-04T00:48:43.611Z,75.80
2018-06-04T00:51:12.977Z,75.75
2018-06-04T00:53:42.750Z,75.21
2018-06-04T00:56:22.773Z,75.48
2018-06-04T00:58:52.170Z,75.35
2018-06-04T01:01:21.523Z,76.30
2018-06-04T01:03:51.074Z,75.62
2018-06-04T01:06:20.594Z,76.59
2018-06-04T01:08:50.618Z,76.18
2018-06-04T01:11:20.332Z,76.61
2018-06-04T01:13:49.966Z,76.47
2018-06-04T01:16:20.572Z,76.86
2018-06-04T01:18:51.293Z,77.20
2018-06-04T01:21:20.890Z,77.47
2018-06-04T01:23:50.896Z,77.13
2018-06-04T01:26:20.638Z,76.67
2018-06-04T01:28:50.350Z,77.25
2018-06-04T01:31:20.431Z,76.95
2018-06-04T01:33:49.832Z,77.12
2018-06-04T01:36:19.210Z,77.02
2018-06-04T01:38:48.843Z,77.65
2018-06-04T01:41:19.201Z,77.29
2018-06-04T01:43:48.650Z,77.28
2018-06-04T01:46:18.214Z,77.83
2018-06-04T01:48:47.607Z,77.60
2018-06-04T01:51:16.992Z,78.11
2018-06-04T01:53:46.519Z,78.64
2018-06-04T01:56:15.971Z,78.59
2018-06-04T01:58:45.276Z,78.77
2018-06-04T02:01:14.511Z,78.54
2018-06-04T02:03:44.029Z,78.49
2018-06-04T02:06:13.223Z,78.34
2018-06-04T02:08:43.100Z,78.36
2018-06-04T02:11:13.147Z,78.73
2018-06-04T02:13:42.409Z,78.85
2018-06-04T02:16:11.707Z,79.02
2018-06-04T02:18:42.965Z,79.46
2018-06-04T02:21:12.204Z,79.55
2018-06-04T02:23:41.645Z,79.78
2018-06-04T02:26:11.013Z,79.92
2018-06-04T02:28:40.250Z,80.45
2018-06-04T02:31:09.548Z,80.91
2018-06-04T02:33:39.188Z,80.77
2018-06-04T02:36:08.549Z,80.53
2018-06-04T02:38:37.780Z,80.69
2018-06-04T02:41:07.185Z,80.66
2018-06-04T02:43:36.520Z,80.50
2018-06-04T02:46:05.996Z,80.85
2018-06-04T02:48:35.357Z,81.29
2018-06-04T02:51:04.761Z,81.40
2018-06-04T02:53:34.065Z,81.53
2018-06-04T02:56:04.293Z,81.54
2018-06-04T02:58:33.512Z,81.63
2018-06-04T03:01:02.915Z,81.78
2018-06-04T03:03:32.322Z,81.69
2018-06-04T03:06:01.642Z,82.12
2018-06-04T03:08:31.170Z,82.04
2018-06-04T03:11:00.678Z,82.27
2018-06-04T03:13:29.937Z,82.14
2018-06-04T03:15:59.835Z,82.48
2018-06-04T03:18:30.078Z,82.00
2018-06-04T03:20:59.756Z,82.44
2018-06-04T03:23:29.775Z,82.21
2018-06-04T03:25:59.819Z,82.04
2018-06-04T03:28:29.529Z,81.97
2018-06-04T03:30:59.292Z,81.71
2018-06-04T03:33:29.513Z,81.57
2018-06-04T03:35:59.271Z,81.38
2018-06-04T03:38:28.850Z,81.58
2018-06-04T03:40:58.856Z,81.73
2018-06-04T03:43:28.911Z,81.72
2018-06-04T03:45:59.004Z,81.91
2018-06-04T03:48:29.125Z,82.04
2018-06-04T03:50:58.451Z,82.15
2018-06-04T03:53:28.061Z,81.92
2018-06-04T03:55:58.306Z,81.65
2018-06-04T03:58:27.622Z,81.87
2018-06-04T04:00:56.901Z,81.87
2018-06-04T04:03:26.394Z,81.69
2018-06-04T04:05:55.757Z,81.56
2018-06-04T04:08:25.143Z,81.49
2018-06-04T04:10:54.950Z,81.71
2018-06-04T04:13:25.413Z,81.85
2018-06-04T04:15:54.882Z,82.10
2018-06-04T04:18:25.268Z,82.21
2018-06-04T04:20:55.041Z,82.51
2018-06-04T04:23:24.952Z,82.62
2018-06-04T04:25:54.796Z,82.63
2018-06-04T04:28:24.575Z,83.06
2018-06-04T04:30:54.345Z,82.88
2018-06-04T04:33:24.151Z,83.37
2018-06-04T04:35:53.890Z,83.28
2018-06-04T04:38:23.675Z,83.61
2018-06-04T04:40:53.886Z,84.08
2018-06-04T04:43:24.001Z,84.32
2018-06-04T04:45:53.475Z,84.08
2018-06-04T04:48:22.993Z,83.90
2018-06-04T04:50:52.381Z,83.79
2018-06-04T04:53:22.003Z,84.01
2018-06-04T04:55:52.021Z,84.17
2018-06-04T04:58:21.970Z,83.82
2018-06-04T05:00:51.989Z,83.85
2018-06-04T05:03:21.858Z,83.56
2018-06-04T05:05:51.371Z,83.52
2018-06-04T05:08:21.085Z,83.62
2018-06-04T05:10:50.573Z,83.77
2018-06-04T05:13:22.621Z,83.50
2018-06-04T05:15:52.966Z,83.70
2018-06-04T05:18:23.810Z,83.57
2018-06-04T05:20:53.594Z,83.43
2018-06-04T05:23:23.310Z,83.52
2018-06-04T05:25:53.000Z,83.59
2018-06-04T05:28:22.612Z,83.53
2018-06-04T05:30:52.831Z,83.79
2018-06-04T05:33:22.607Z,83.74
2018-06-04T05:35:52.288Z,83.62
2018-06-04T05:38:22.006Z,83.56
2018-06-04T05:40:51.845Z,83.65
2018-06-04T05:43:21.450Z,83.17
2018-06-04T05:45:51.226Z,82.90
2018-06-04T05:48:21.080Z,82.53
2018-06-04T05:50:50.672Z,82.53
2018-06-04T05:53:20.256Z,82.65
2018-06-04T05:55:50.054Z,83.13
2018-06-04T05:58:19.509Z,82.62
2018-06-04T06:00:48.899Z,82.69
2018-06-04T06:03:18.713Z,82.33
2018-06-04T06:05:48.344Z,81.93
2018-06-04T06:08:17.736Z,81.51
2018-06-04T06:10:47.098Z,82.02
2018-06-04T06:13:16.513Z,82.11
2018-06-04T06:15:45.836Z,81.81
2018-06-04T06:18:15.150Z,81.79
2018-06-04T06:20:44.678Z,82.00
2018-06-04T06:23:13.960Z,81.66
2018-06-04T06:25:43.830Z,81.58
2018-06-04T06:28:13.159Z,81.77
2018-06-04T06:30:42.421Z,82.04
2018-06-04T06:33:11.891Z,82.19
2018-06-04T06:35:41.360Z,81.72
2018-06-04T06:38:10.729Z,81.09
2018-06-04T06:40:40.941Z,81.21
2018-06-04T06:43:10.207Z,81.01
2018-06-04T06:45:39.493Z,81.03
2018-06-04T06:48:09.477Z,80.63
2018-06-04T06:50:38.749Z,80.93
2018-06-04T06:53:08.093Z,80.71
2018-06-04T06:55:37.374Z,80.33
2018-06-04T06:58:06.612Z,80.91
2018-06-04T07:00:35.873Z,80.79
2018-06-04T07:03:06.512Z,79.78
2018-06-04T07:05:35.764Z,80.32
2018-06-04T07:08:05.083Z,79.70
2018-06-04T07:10:34.619Z,79.65
2018-06-04T07:13:03.991Z,79.27
2018-06-04T07:15:33.277Z,79.15
2018-06-04T07:18:02.621Z,79.27
2018-06-04T07:20:32.075Z,78.88
2018-06-04T07:23:01.793Z,78.54
2018-06-04T07:25:31.201Z,79.39
2018-06-04T07:28:00.879Z,79.42
2018-06-04T07:30:30.573Z,79.46
2018-06-04T07:32:59.936Z,79.03
2018-06-04T07:35:29.416Z,79.32
2018-06-04T07:37:59.196Z,79.20
2018-06-04T07:40:28.606Z,78.85
2018-06-04T07:42:57.942Z,78.79
2018-06-04T07:45:27.362Z,79.13
2018-06-04T07:47:57.421Z,79.11
2018-06-04T07:50:26.862Z,79.01
2018-06-04T07:52:56.894Z,79.91
2018-06-04T07:55:27.062Z,80.31
2018-06-04T07:57:56.468Z,80.50
2018-06-04T08:00:25.903Z,80.92
2018-06-04T08:02:55.677Z,80.99
2018-06-04T08:05:25.499Z,81.56
2018-06-04T08:07:55.352Z,81.49
2018-06-04T08:10:25.635Z,81.57
2018-06-04T08:12:55.134Z,81.08
2018-06-04T08:15:25.152Z,81.64
2018-06-04T08:17:54.859Z,81.43
2018-06-04T08:20:24.515Z,81.76
2018-06-04T08:22:54.179Z,82.40
2018-06-04T08:25:24.045Z,82.52
2018-06-04T08:27:53.800Z,82.87
2018-06-04T08:30:23.456Z,82.42
2018-06-04T08:32:53.158Z,83.02
2018-06-04T08:35:23.058Z,83.23
2018-06-04T08:37:52.680Z,83.25
2018-06-04T08:40:22.801Z,83.44
2018-06-04T08:42:52.720Z,82.98
2018-06-04T08:45:22.392Z,81.72
2018-06-04T08:47:52.255Z,81.89
2018-06-04T08:50:22.235Z,81.25
2018-06-04T08:52:51.932Z,81.58
2018-06-04T08:55:21.856Z,81.19
2018-06-04T08:57:51.867Z,81.30
2018-06-04T09:00:22.239Z,81.39
2018-06-04T09:02:52.047Z,80.36
2018-06-04T09:05:21.603Z,81.23
2018-06-04T09:07:52.172Z,80.80
2018-06-04T09:10:21.752Z,80.74
2018-06-04T09:12:51.349Z,80.58
2018-06-04T09:15:20.968Z,80.77
2018-06-04T09:17:50.490Z,80.93
2018-06-04T09:20:19.995Z,81.04
2018-06-04T09:22:49.636Z,80.34
2018-06-04T09:25:18.977Z,80.90
2018-06-04T09:27:48.358Z,80.78
2018-06-04T09:30:17.827Z,80.75
2018-06-04T09:32:47.092Z,80.18
2018-06-04T09:35:16.412Z,80.09
2018-06-04T09:37:45.800Z,80.54
2018-06-04T09:40:15.090Z,80.57
2018-06-04T09:42:44.416Z,80.15
2018-06-04T09:45:13.724Z,80.49
2018-06-04T09:47:43.025Z,80.24
2018-06-04T09:50:12.322Z,80.12
2018-06-04T09:52:41.696Z,79.47
2018-06-04T09:55:11.026Z,80.15
2018-06-04T09:57:40.305Z,79.17
2018-06-04T10:00:09.730Z,79.04
2018-06-04T10:02:39.075Z,78.61
2018-06-04T10:05:08.405Z,78.38
2018-06-04T10:07:37.732Z,78.75
2018-06-04T10:10:07.390Z,78.18
2018-06-04T10:12:36.744Z,78.23
2018-06-04T10:15:06.222Z,77.46
2018-06-04T10:17:35.519Z,77.45
2018-06-04T10:20:04.851Z,76.34
2018-06-04T10:22:34.215Z,76.51
2018-06-04T10:25:03.541Z,75.03
2018-06-04T10:27:33.045Z,74.48
2018-06-04T10:30:02.766Z,73.04
2018-06-04T10:32:32.168Z,71.65
2018-06-04T10:35:01.754Z,72.69
2018-06-04T10:37:31.294Z,72.17
2018-06-04T10:40:00.979Z,70.73
2018-06-04T10:42:31.030Z,71.56
2018-06-04T10:45:00.935Z,72.17
2018-06-04T10:47:30.669Z,72.49
2018-06-04T10:50:00.323Z,72.87
2018-06-04T10:52:29.816Z,72.97
2018-06-04T10:54:59.422Z,73.13
2018-06-04T10:57:29.009Z,72.91
2018-06-04T10:59:58.966Z,69.95
2018-06-04T11:02:28.722Z,67.61
2018-06-04T11:04:58.295Z,62.45
2018-06-04T11:07:28.484Z,60.97
2018-06-04T11:09:58.090Z,60.08
2018-06-04T11:12:27.757Z,60.48
2018-06-04T11:14:57.761Z,60.44
2018-06-04T11:17:27.412Z,59.45
2018-06-04T11:19:56.951Z,61.85
2018-06-04T11:22:26.756Z,61.79
2018-06-04T11:24:56.247Z,59.00
2018-06-04T11:27:25.980Z,59.08
2018-06-04T11:29:55.573Z,58.80
2018-06-04T11:32:25.129Z,59.25
2018-06-04T11:34:54.917Z,59.46
2018-06-04T11:37:24.588Z,58.88
2018-06-04T11:39:54.119Z,58.92
2018-06-04T11:42:23.955Z,59.15
2018-06-04T11:44:54.260Z,58.08
2018-06-04T11:47:24.095Z,58.93
2018-06-04T11:49:53.710Z,58.95
2018-06-04T11:52:24.643Z,56.66
2018-06-04T11:54:54.240Z,57.64
2018-06-04T11:57:24.007Z,58.82
2018-06-04T11:59:53.770Z,58.97
2018-06-04T12:02:23.372Z,57.88
2018-06-04T12:04:53.252Z,57.75
2018-06-04T12:07:23.480Z,55.51
2018-06-04T12:09:53.560Z,55.68
2018-06-04T12:12:23.650Z,54.15
2018-06-04T12:14:53.368Z,52.76
2018-06-04T12:17:23.491Z,52.89
2018-06-04T12:19:53.723Z,51.65
2018-06-04T12:22:24.473Z,51.18
2018-06-04T12:24:54.063Z,51.24
2018-06-04T12:27:23.752Z,50.85
2018-06-04T12:29:53.323Z,50.37
2018-06-04T12:32:23.000Z,51.36
2018-06-04T12:34:52.547Z,50.22
2018-06-04T12:37:22.379Z,49.12
2018-06-04T12:39:51.974Z,49.04
2018-06-04T12:42:22.187Z,49.45
2018-06-04T12:44:52.131Z,49.49
2018-06-04T12:47:21.852Z,51.36
2018-06-04T12:49:51.520Z,52.42
2018-06-04T12:52:22.355Z,50.85
2018-06-04T12:54:51.989Z,49.82
2018-06-04T12:57:21.455Z,48.43
2018-06-04T12:59:51.801Z,47.02
2018-06-04T13:02:21.800Z,46.10
2018-06-04T13:04:52.435Z,45.56
2018-06-04T13:07:22.068Z,45.68
2018-06-04T13:09:52.006Z,45.44
2018-06-04T13:12:22.296Z,44.37
2018-06-04T13:14:51.796Z,45.31
2018-06-04T13:17:21.915Z,46.06
2018-06-04T13:19:51.736Z,45.57
2018-06-04T13:22:21.381Z,44.55
2018-06-04T13:24:51.182Z,44.85
2018-06-04T13:27:21.071Z,45.05
2018-06-04T13:29:51.023Z,45.92
2018-06-04T13:32:20.694Z,45.80
2018-06-04T13:34:51.121Z,47.28
2018-06-04T13:37:20.657Z,46.66
2018-06-04T13:39:50.948Z,46.23
2018-06-04T13:42:21.670Z,45.55
2018-06-04T13:44:51.433Z,46.57
2018-06-04T13:47:21.408Z,46.95
2018-06-04T13:49:51.682Z,46.38
2018-06-04T13:52:21.493Z,46.03
2018-06-04T13:54:51.248Z,47.91
2018-06-04T13:57:21.168Z,47.27
2018-06-04T13:59:50.796Z,48.55
2018-06-04T14:02:20.277Z,50.03
2018-06-04T14:04:49.827Z,49.37
2018-06-04T14:07:19.337Z,47.90
2018-06-04T14:09:48.858Z,47.69
2018-06-04T14:12:18.296Z,49.66
2018-06-04T14:14:47.823Z,47.98
2018-06-04T14:17:17.309Z,47.29
2018-06-04T14:19:46.773Z,47.68
2018-06-04T14:22:16.328Z,47.41
2018-06-04T14:24:45.662Z,48.52
2018-06-04T14:27:15.265Z,48.85
2018-06-04T14:29:44.530Z,49.33
2018-06-04T14:32:13.894Z,50.36
2018-06-04T14:34:43.443Z,51.42
2018-06-04T14:37:12.814Z,51.38
2018-06-04T14:39:42.288Z,50.27
2018-06-04T14:42:11.634Z,50.24
2018-06-04T14:44:40.927Z,50.10
2018-06-04T14:47:10.349Z,50.37
2018-06-04T14:49:39.817Z,51.21
2018-06-04T14:52:09.098Z,51.98
2018-06-04T14:54:38.499Z,51.16
2018-06-04T14:58:37.074Z,49.64
2018-06-04T15:01:06.803Z,49.88
2018-06-04T15:03:36.307Z,50.80
2018-06-04T15:06:05.919Z,51.74
2018-06-04T15:08:35.512Z,51.35
2018-06-04T15:11:05.135Z,50.18
2018-06-04T15:13:34.870Z,50.74
2018-06-04T15:16:04.503Z,51.52
2018-06-04T15:18:34.453Z,53.78
2018-06-04T15:21:04.246Z,54.02
2018-06-04T15:23:34.017Z,55.14
2018-06-04T15:26:03.659Z,55.61
2018-06-04T15:28:33.559Z,55.85
2018-06-04T15:31:03.342Z,56.09
2018-06-04T15:33:33.350Z,54.40
2018-06-04T15:36:02.793Z,55.37
2018-06-04T15:38:32.527Z,55.01
2018-06-04T15:41:02.045Z,54.75
2018-06-04T15:43:31.994Z,54.73
2018-06-04T15:46:01.649Z,55.38
2018-06-04T15:48:31.344Z,55.12
2018-06-04T15:51:01.481Z,55.99
2018-06-04T15:53:31.144Z,57.52
2018-06-04T15:56:00.846Z,57.82
2018-06-04T15:58:30.687Z,58.33
2018-06-04T16:01:00.658Z,57.00
2018-06-04T16:03:30.331Z,57.48
2018-06-04T16:06:00.023Z,56.39
2018-06-04T16:08:29.794Z,54.64
2018-06-04T16:10:59.209Z,53.55
2018-06-04T16:13:28.979Z,54.34
2018-06-04T16:15:58.505Z,55.77
2018-06-04T16:18:28.189Z,55.63
2018-06-04T16:20:57.781Z,55.32
2018-06-04T16:23:27.301Z,56.21
2018-06-04T16:25:57.072Z,54.92
2018-06-04T16:28:26.653Z,53.70
2018-06-04T16:30:56.145Z,53.21
2018-06-04T16:33:25.934Z,54.40
2018-06-04T16:35:55.644Z,56.12
2018-06-04T16:38:25.243Z,56.15
2018-06-04T16:40:55.166Z,54.80
2018-06-04T16:43:25.284Z,55.11
2018-06-04T16:45:54.993Z,53.24
2018-06-04T16:48:24.653Z,52.54
2018-06-04T16:50:54.600Z,52.44
2018-06-04T16:53:24.891Z,51.95
2018-06-04T16:55:54.939Z,51.63
2018-06-04T16:58:24.656Z,51.78
2018-06-04T17:00:54.512Z,53.58
2018-06-04T17:03:24.217Z,53.79
2018-06-04T17:05:54.434Z,56.48
2018-06-04T17:08:24.245Z,57.27
2018-06-04T17:10:54.151Z,58.54
2018-06-04T17:13:24.855Z,58.88
2018-06-04T17:15:54.779Z,59.26
2018-06-04T17:18:24.484Z,59.47
2018-06-04T17:20:54.428Z,59.29
2018-06-04T17:23:24.114Z,59.75
2018-06-04T17:25:53.821Z,60.48
2018-06-04T17:28:23.729Z,60.32
2018-06-04T17:30:53.561Z,61.82
2018-06-04T17:33:23.271Z,61.13
2018-06-04T17:35:52.898Z,61.52
2018-06-04T17:38:22.676Z,62.14
2018-06-04T17:40:52.671Z,63.20
2018-06-04T17:43:22.411Z,63.31
2018-06-04T17:45:52.118Z,63.93
2018-06-04T17:48:21.708Z,63.89
2018-06-04T17:50:51.647Z,64.40
2018-06-04T17:53:21.255Z,64.45
2018-06-04T17:55:51.174Z,63.75
2018-06-04T17:58:20.910Z,62.91
2018-06-04T18:00:51.044Z,62.83
2018-06-04T18:03:21.354Z,61.34
2018-06-04T18:05:51.245Z,61.29
2018-06-04T18:08:21.141Z,61.30
2018-06-04T18:10:51.073Z,62.28
2018-06-04T18:13:21.275Z,61.62
2018-06-04T18:15:51.197Z,62.25
2018-06-04T18:18:21.473Z,62.98
2018-06-04T18:20:51.324Z,63.45
2018-06-04T18:23:21.874Z,63.00
2018-06-04T18:25:51.747Z,63.95
2018-06-04T18:28:21.700Z,64.77
2018-06-04T18:30:51.968Z,65.19
2018-06-04T18:33:22.658Z,65.78
2018-06-04T18:35:52.998Z,66.33
2018-06-04T18:38:22.901Z,66.25
2018-06-04T18:40:52.932Z,65.93
2018-06-04T18:43:22.811Z,65.84
2018-06-04T18:45:52.529Z,65.84
2018-06-04T18:48:22.768Z,65.13
2018-06-04T18:50:52.939Z,64.97
2018-06-04T18:53:23.964Z,65.57
2018-06-04T18:55:54.069Z,66.36
2018-06-04T18:58:24.183Z,66.18
2018-06-04T19:00:54.116Z,67.35
2018-06-04T19:03:24.446Z,67.55
2018-06-04T19:05:54.758Z,67.87
2018-06-04T19:08:24.993Z,67.41
2018-06-04T19:10:55.058Z,68.08
2018-06-04T19:13:24.830Z,68.68
2018-06-04T19:15:54.331Z,69.24
2018-06-04T19:18:24.078Z,69.85
2018-06-04T19:20:54.205Z,69.85
2018-06-04T19:23:24.550Z,69.86
2018-06-04T19:25:54.789Z,70.06
2018-06-04T19:28:24.497Z,71.48
2018-06-04T19:30:54.434Z,70.41
2018-06-04T19:33:25.488Z,71.22
2018-06-04T19:35:55.357Z,71.51
2018-06-04T19:38:25.132Z,71.19
2018-06-04T19:40:54.921Z,71.90
2018-06-04T19:43:24.687Z,71.67
2018-06-04T19:45:54.609Z,72.10
2018-06-04T19:48:24.409Z,71.68
2018-06-04T19:50:54.428Z,71.83
2018-06-04T19:53:24.470Z,72.54
2018-06-04T19:55:55.617Z,72.35
2018-06-04T19:58:25.958Z,72.65
2018-06-04T20:00:55.726Z,73.23
2018-06-04T20:03:25.469Z,73.66
2018-06-04T20:05:55.261Z,74.47
2018-06-04T20:08:24.981Z,73.90
2018-06-04T20:10:55.068Z,73.76
2018-06-04T20:13:24.893Z,73.85
2018-06-04T20:15:54.645Z,73.99
2018-06-04T20:18:24.458Z,75.27
2018-06-04T20:20:54.859Z,75.66
2018-06-04T20:23:25.202Z,75.34
2018-06-04T20:25:55.130Z,75.03
2018-06-04T20:28:25.318Z,76.10
2018-06-04T20:30:55.165Z,75.81
2018-06-04T20:33:25.153Z,75.43
2018-06-04T20:35:54.880Z,75.63
2018-06-04T20:38:25.089Z,76.73
2018-06-04T20:40:55.834Z,76.92
2018-06-04T20:43:25.426Z,76.85
2018-06-04T20:45:55.458Z,76.62
2018-06-04T20:48:25.337Z,77.04
2018-06-04T20:50:54.860Z,76.69
2018-06-04T20:53:25.625Z,77.09
2018-06-04T20:55:55.403Z,76.26
2018-06-04T20:58:25.326Z,76.95
2018-06-04T21:00:55.543Z,76.93
2018-06-04T21:03:25.556Z,77.26
2018-06-04T21:05:55.492Z,77.23
2018-06-04T21:08:25.280Z,76.69
2018-06-04T21:10:55.537Z,76.69
2018-06-04T21:13:25.364Z,76.76
2018-06-04T21:15:55.881Z,76.76
2018-06-04T21:18:26.506Z,76.66
2018-06-04T21:20:56.483Z,76.69
2018-06-04T21:23:26.958Z,76.71
2018-06-04T21:25:56.949Z,76.84
2018-06-04T21:28:27.165Z,76.25
2018-06-04T21:30:57.008Z,76.50
2018-06-04T21:33:26.783Z,76.76
2018-06-04T21:35:56.706Z,76.70
2018-06-04T21:38:26.322Z,76.90
2018-06-04T21:40:56.467Z,77.34
2018-06-04T21:43:29.114Z,77.47
2018-06-04T21:46:01.694Z,77.42
2018-06-04T21:48:32.440Z,77.57
2018-06-04T21:51:02.307Z,77.89
2018-06-04T21:53:34.509Z,78.08
2018-06-04T21:56:04.161Z,78.06
2018-06-04T21:58:34.297Z,78.22
2018-06-04T22:01:04.251Z,78.18
2018-06-04T22:03:38.045Z,77.68
2018-06-04T22:06:10.007Z,78.51
2018-06-04T22:08:39.512Z,79.01
2018-06-04T22:11:08.836Z,78.71
2018-06-04T22:13:38.937Z,78.69
2018-06-04T22:16:08.236Z,79.19
2018-06-04T22:18:39.256Z,79.27
2018-06-04T22:21:08.963Z,79.33
2018-06-04T22:23:38.429Z,79.60
2018-06-04T22:26:07.717Z,79.27
2018-06-04T22:28:37.328Z,79.36
2018-06-04T22:31:06.631Z,79.52
2018-06-04T22:33:35.929Z,79.28
2018-06-04T22:36:05.330Z,79.78
2018-06-04T22:38:40.676Z,80.27
2018-06-04T22:41:10.177Z,79.93
2018-06-04T22:43:41.811Z,80.17
2018-06-04T22:46:12.053Z,80.60
2018-06-04T22:48:41.402Z,80.52
2018-06-04T22:51:10.734Z,79.88
2018-06-04T22:53:40.819Z,80.63
2018-06-04T22:56:10.301Z,80.36
2018-06-04T22:58:39.567Z,81.01
2018-06-04T23:01:10.033Z,80.59
2018-06-04T23:03:39.928Z,80.22
2018-06-04T23:06:09.336Z,80.96
2018-06-04T23:08:39.204Z,81.29
2018-06-04T23:11:08.992Z,81.26
2018-06-04T23:13:38.944Z,81.20
2018-06-04T23:16:08.667Z,80.98
2018-06-04T23:18:38.881Z,81.76
2018-06-04T23:21:11.423Z,81.62
2018-06-04T23:23:40.891Z,82.11
2018-06-04T23:26:10.292Z,81.69
2018-06-04T23:28:40.485Z,81.50
2018-06-04T23:31:10.472Z,81.88
2018-06-04T23:33:40.043Z,81.93
2018-06-04T23:36:11.148Z,81.95
2018-06-04T23:38:41.437Z,82.07
2018-06-04T23:41:13.458Z,82.02
2018-06-04T23:43:42.839Z,82.59
2018-06-04T23:46:13.681Z,82.06
2018-06-04T23:48:44.700Z,82.18
2018-06-04T23:51:14.122Z,81.86
2018-06-04T23:53:44.002Z,81.87
2018-06-04T23:56:13.650Z,82.09
2018-06-04T23:58:44.260Z,82.09
